createdAt,value
2019-04-19T00:00:04.551Z,101092.94
2019-04-19T00:02:38.333Z,101100.88
2019-04-19T00:05:06.263Z,101099.34
2019-04-19T00:07:35.758Z,101094.98
2019-04-19T00:10:23.669Z,101096.16
2019-04-19T00:12:46.866Z,101096.46
2019-04-19T00:15:09.680Z,101097.89
2019-04-19T00:17:38.825Z,101103.23
2019-04-19T00:20:43.092Z,101095.81
2019-04-19T00:22:53.989Z,101097.93
2019-04-19T00:25:09.400Z,101098.63
2019-04-19T00:27:46.066Z,101100.88
2019-04-19T00:30:24.313Z,101095.11
2019-04-19T00:32:59.427Z,101100.07
2019-04-19T00:35:09.523Z,101096.98
2019-04-19T00:37:38.618Z,101100.88
2019-04-19T00:40:35.015Z,101102.13
2019-04-19T00:43:18.609Z,101106.50
2019-04-19T00:46:05.824Z,101099.84
2019-04-19T00:48:46.072Z,101106.97
2019-04-19T00:50:59.845Z,101104.16
2019-04-19T00:53:28.297Z,101099.65
2019-04-19T00:55:57.341Z,101099.65
2019-04-19T00:58:24.393Z,101101.66
2019-04-19T01:00:49.095Z,101105.47
2019-04-19T01:03:26.523Z,101109.14
2019-04-19T01:05:58.125Z,101108.13
2019-04-19T01:08:22.623Z,101107.06
2019-04-19T01:11:06.027Z,101110.54
2019-04-19T01:13:40.333Z,101108.00
2019-04-19T01:16:03.068Z,101111.31
2019-04-19T01:18:29.904Z,101106.61
2019-04-19T01:20:50.150Z,101111.32
2019-04-19T01:23:20.110Z,101112.17
2019-04-19T01:25:54.655Z,101113.55
2019-04-19T01:28:23.003Z,101111.56
2019-04-19T01:30:50.760Z,101115.31
2019-04-19T01:33:26.465Z,101114.14
2019-04-19T01:35:55.338Z,101109.56
2019-04-19T01:38:21.572Z,101113.98
2019-04-19T01:41:07.666Z,101117.39
2019-04-19T01:43:38.479Z,101122.80
2019-04-19T01:46:14.552Z,101122.33
2019-04-19T01:48:50.712Z,101119.27
2019-04-19T01:51:36.807Z,101117.62
2019-04-19T01:54:06.674Z,101123.86
2019-04-19T01:56:19.727Z,101122.35
2019-04-19T01:58:53.600Z,101121.36
2019-04-19T02:01:22.092Z,101117.11
2019-04-19T02:03:49.396Z,101123.11
2019-04-19T02:06:21.378Z,101115.61
2019-04-19T02:08:51.965Z,101119.84
2019-04-19T02:11:49.443Z,101124.44
2019-04-19T02:14:17.065Z,101117.53
2019-04-19T02:16:41.385Z,101125.34
2019-04-19T02:19:16.320Z,101125.07
2019-04-19T02:21:44.320Z,101123.30
2019-04-19T02:24:12.529Z,101127.12
2019-04-19T02:26:50.047Z,101133.77
2019-04-19T02:29:17.775Z,101135.85
2019-04-19T02:32:09.182Z,101138.77
2019-04-19T02:34:49.565Z,101139.27
2019-04-19T02:44:44.976Z,101149.23
2019-04-19T02:49:46.027Z,101152.86
2019-04-19T02:52:22.165Z,101149.02
2019-04-19T02:54:50.185Z,101151.71
2019-04-19T03:00:17.035Z,101153.80
2019-04-19T03:02:50.276Z,101153.91
2019-04-19T03:07:15.959Z,101156.13
2019-04-19T03:09:46.853Z,101158.63
2019-04-19T03:12:38.456Z,101166.28
2019-04-19T03:15:02.022Z,101168.63
2019-04-19T03:17:35.093Z,101166.91
2019-04-19T03:20:00.716Z,101168.70
2019-04-19T03:22:31.063Z,101167.41
2019-04-19T03:25:07.956Z,101166.03
2019-04-19T03:27:24.430Z,101165.20
2019-04-19T03:29:48.970Z,101166.64
2019-04-19T03:32:55.697Z,101164.34
2019-04-19T03:35:04.131Z,101168.42
2019-04-19T03:37:38.064Z,101170.08
2019-04-19T03:40:14.477Z,101175.00
2019-04-19T03:42:40.937Z,101167.45
2019-04-19T03:45:08.214Z,101178.48
2019-04-19T03:47:47.237Z,101176.70
2019-04-19T03:50:11.109Z,101181.12
2019-04-19T03:52:37.622Z,101183.44
2019-04-19T03:55:15.590Z,101182.84
2019-04-19T03:57:31.488Z,101184.77
2019-04-19T03:59:52.293Z,101186.95
2019-04-19T04:02:24.551Z,101188.20
2019-04-19T04:04:57.107Z,101190.88
2019-04-19T04:07:25.773Z,101196.13
2019-04-19T04:09:59.745Z,101194.33
2019-04-19T04:12:39.584Z,101203.78
2019-04-19T04:15:14.165Z,101206.03
2019-04-19T04:17:35.370Z,101206.95
2019-04-19T04:20:07.428Z,101205.19
2019-04-19T04:22:40.100Z,101213.61
2019-04-19T04:25:15.430Z,101209.64
2019-04-19T04:27:49.712Z,101216.14
2019-04-19T04:30:17.616Z,101217.06
2019-04-19T04:32:51.468Z,101223.72
2019-04-19T04:35:27.281Z,101220.20
2019-04-19T04:37:52.594Z,101227.25
2019-04-19T04:40:08.945Z,101224.10
2019-04-19T04:42:44.394Z,101226.38
2019-04-19T04:45:33.132Z,101232.11
2019-04-19T04:48:01.386Z,101238.30
2019-04-19T04:50:57.735Z,101234.31
2019-04-19T04:53:13.032Z,101239.65
2019-04-19T04:55:49.612Z,101237.42
2019-04-19T04:58:22.034Z,101244.92
2019-04-19T05:00:50.924Z,101244.48
2019-04-19T05:03:35.589Z,101250.20
2019-04-19T05:06:06.471Z,101249.33
2019-04-19T05:08:37.363Z,101258.56
2019-04-19T05:11:05.623Z,101254.14
2019-04-19T05:13:33.427Z,101257.23
2019-04-19T05:16:06.816Z,101269.02
2019-04-19T05:18:34.641Z,101269.66
2019-04-19T05:21:06.542Z,101261.73
2019-04-19T05:23:32.242Z,101270.11
2019-04-19T05:26:21.500Z,101270.53
2019-04-19T05:28:38.616Z,101274.37
2019-04-19T05:30:55.654Z,101270.44
2019-04-19T05:33:34.265Z,101277.44
2019-04-19T05:36:12.188Z,101277.17
2019-04-19T05:38:44.922Z,101277.41
2019-04-19T05:41:10.332Z,101276.59
2019-04-19T05:44:14.282Z,101274.69
2019-04-19T05:46:41.927Z,101274.16
2019-04-19T05:49:04.740Z,101268.21
2019-04-19T05:51:43.669Z,101279.88
2019-04-19T05:53:55.177Z,101283.02
2019-04-19T05:56:22.080Z,101280.07
2019-04-19T05:59:02.756Z,101279.44
2019-04-19T06:01:43.210Z,101282.61
2019-04-19T06:04:11.752Z,101277.42
2019-04-19T06:06:45.713Z,101269.84
2019-04-19T06:08:52.030Z,101276.01
2019-04-19T06:11:23.132Z,101277.52
2019-04-19T06:14:12.698Z,101279.73
2019-04-19T06:16:35.027Z,101279.45
2019-04-19T06:19:17.011Z,101288.86
2019-04-19T06:21:46.053Z,101291.48
2019-04-19T06:24:23.386Z,101288.13
2019-04-19T06:27:04.579Z,101281.09
2019-04-19T06:29:25.614Z,101287.83
2019-04-19T06:32:00.668Z,101297.14
2019-04-19T06:34:21.599Z,101294.67
2019-04-19T06:36:31.323Z,101291.02
2019-04-19T06:38:59.798Z,101290.37
2019-04-19T06:41:36.569Z,101297.67
2019-04-19T06:44:09.514Z,101298.19
2019-04-19T06:46:41.525Z,101305.09
2019-04-19T06:49:04.882Z,101309.66
2019-04-19T06:51:38.769Z,101317.69
2019-04-19T06:54:03.961Z,101309.67
2019-04-19T06:56:35.414Z,101319.77
2019-04-19T06:59:10.391Z,101319.50
2019-04-19T07:01:40.246Z,101313.32
2019-04-19T07:04:02.093Z,101313.68
2019-04-19T07:06:44.271Z,101313.88
2019-04-19T07:09:29.381Z,101324.70
2019-04-19T07:12:00.752Z,101317.82
2019-04-19T07:14:08.574Z,101312.02
2019-04-19T07:16:50.094Z,101309.22
2019-04-19T07:19:20.206Z,101312.33
2019-04-19T07:21:46.893Z,101322.30
2019-04-19T07:24:30.712Z,101327.34
2019-04-19T07:26:56.546Z,101325.39
2019-04-19T07:29:04.321Z,101326.31
2019-04-19T07:31:35.092Z,101328.47
2019-04-19T07:34:13.503Z,101328.75
2019-04-19T07:36:49.887Z,101321.12
2019-04-19T07:39:25.657Z,101333.42
2019-04-19T07:41:56.263Z,101332.78
2019-04-19T07:44:25.592Z,101332.21
2019-04-19T07:47:13.976Z,101334.22
2019-04-19T07:49:40.493Z,101336.88
2019-04-19T07:52:12.373Z,101341.66
2019-04-19T07:54:35.699Z,101336.64
2019-04-19T07:57:40.477Z,101341.64
2019-04-19T08:00:01.053Z,101347.13
2019-04-19T08:02:36.014Z,101342.45
2019-04-19T08:07:41.517Z,101347.67
2019-04-19T08:12:33.644Z,101348.64
2019-04-19T08:15:06.371Z,101345.95
2019-04-19T08:29:47.249Z,101355.96
2019-04-19T08:32:10.815Z,101357.70
2019-04-19T08:34:40.262Z,101352.39
2019-04-19T08:37:19.927Z,101359.91
2019-04-19T08:39:55.029Z,101361.25
2019-04-19T08:42:31.071Z,101363.80
2019-04-19T08:44:51.266Z,101360.17
2019-04-19T08:47:26.194Z,101365.89
2019-04-19T08:49:52.957Z,101358.33
2019-04-19T08:52:27.255Z,101356.58
2019-04-19T08:55:13.885Z,101354.92
2019-04-19T08:57:26.053Z,101353.17
2019-04-19T09:00:17.258Z,101362.53
2019-04-19T09:02:41.028Z,101349.39
2019-04-19T09:05:15.624Z,101361.48
2019-04-19T09:10:27.237Z,101356.44
2019-04-19T09:12:39.809Z,101355.45
2019-04-19T09:15:12.551Z,101350.68
2019-04-19T09:18:09.927Z,101354.97
2019-04-19T09:20:15.809Z,101352.05
2019-04-19T09:22:56.633Z,101344.81
2019-04-19T09:25:28.899Z,101344.41
2019-04-19T09:28:07.780Z,101342.38
2019-04-19T09:30:37.936Z,101340.06
2019-04-19T09:32:50.009Z,101335.77
2019-04-19T09:35:21.904Z,101339.55
2019-04-19T09:38:01.293Z,101340.73
2019-04-19T09:40:29.364Z,101340.73
2019-04-19T09:42:58.555Z,101334.63
2019-04-19T09:45:20.986Z,101339.18
2019-04-19T09:47:50.325Z,101334.42
2019-04-19T09:50:35.802Z,101331.91
2019-04-19T09:53:14.809Z,101327.80
2019-04-19T09:55:43.314Z,101331.46
2019-04-19T09:58:13.963Z,101328.59
2019-04-19T10:00:26.739Z,101336.20
2019-04-19T10:02:58.929Z,101318.54
2019-04-19T10:05:24.124Z,101316.66
2019-04-19T10:07:52.978Z,101326.53
2019-04-19T10:10:22.755Z,101317.77
2019-04-19T10:12:51.842Z,101319.62
2019-04-19T10:15:28.408Z,101323.69
2019-04-19T10:17:56.927Z,101327.73
2019-04-19T10:20:27.287Z,101324.06
2019-04-19T10:22:58.376Z,101323.20
2019-04-19T10:25:27.702Z,101316.93
2019-04-19T10:27:56.094Z,101318.11
2019-04-19T10:30:32.317Z,101321.47
2019-04-19T10:33:00.924Z,101321.99
2019-04-19T10:35:29.537Z,101321.64
2019-04-19T10:37:58.303Z,101315.09
2019-04-19T10:40:27.799Z,101314.41
2019-04-19T10:42:56.739Z,101307.56
2019-04-19T10:45:25.902Z,101314.69
2019-04-19T10:47:55.679Z,101306.23
2019-04-19T10:50:35.835Z,101308.72
2019-04-19T10:52:56.555Z,101306.11
2019-04-19T10:55:26.704Z,101300.29
2019-04-19T10:57:55.157Z,101304.73
2019-04-19T11:00:24.853Z,101301.14
2019-04-19T11:02:54.709Z,101298.41
2019-04-19T11:05:24.872Z,101301.76
2019-04-19T11:07:53.767Z,101296.12
2019-04-19T11:10:22.661Z,101288.80
2019-04-19T11:12:52.442Z,101286.42
2019-04-19T11:15:22.362Z,101288.23
2019-04-19T11:17:51.814Z,101287.84
2019-04-19T11:20:31.862Z,101288.55
2019-04-19T11:22:51.207Z,101295.59
2019-04-19T11:25:20.172Z,101295.23
2019-04-19T11:27:51.176Z,101296.68
2019-04-19T11:30:32.934Z,101300.71
2019-04-19T11:33:03.210Z,101287.25
2019-04-19T11:35:39.560Z,101292.72
2019-04-19T11:38:08.961Z,101290.48
2019-04-19T11:40:37.530Z,101293.15
2019-04-19T11:43:07.015Z,101285.81
2019-04-19T11:45:37.729Z,101288.74
2019-04-19T11:48:06.358Z,101287.94
2019-04-19T11:50:35.867Z,101287.20
2019-04-19T11:53:18.545Z,101282.36
2019-04-19T11:55:56.246Z,101292.78
2019-04-19T11:58:26.348Z,101297.18
2019-04-19T12:01:03.734Z,101290.50
2019-04-19T12:03:32.330Z,101291.59
2019-04-19T12:06:02.276Z,101296.92
2019-04-19T12:08:30.927Z,101285.94
2019-04-19T12:11:00.104Z,101288.20
2019-04-19T12:13:30.335Z,101290.05
2019-04-19T12:15:59.070Z,101291.38
2019-04-19T12:18:28.482Z,101285.97
2019-04-19T12:20:57.497Z,101285.28
2019-04-19T12:23:26.099Z,101284.41
2019-04-19T12:25:55.607Z,101283.05
2019-04-19T12:28:24.147Z,101293.34
2019-04-19T12:30:55.606Z,101287.83
2019-04-19T12:33:23.719Z,101287.61
2019-04-19T12:35:53.047Z,101285.09
2019-04-19T12:38:22.276Z,101289.34
2019-04-19T12:40:56.139Z,101287.13
2019-04-19T12:43:25.992Z,101298.67
2019-04-19T12:45:55.537Z,101275.73
2019-04-19T12:48:25.685Z,101294.62
2019-04-19T12:50:55.607Z,101288.11
2019-04-19T12:53:25.284Z,101271.25
2019-04-19T12:55:54.084Z,101276.74
2019-04-19T12:58:23.901Z,101270.72
2019-04-19T13:00:58.560Z,101275.92
2019-04-19T13:03:39.576Z,101274.41
2019-04-19T13:06:13.438Z,101268.98
2019-04-19T13:08:43.242Z,101265.72
2019-04-19T13:11:11.933Z,101259.55
2019-04-19T13:13:41.563Z,101260.11
2019-04-19T13:16:10.317Z,101255.20
2019-04-19T13:18:38.768Z,101255.41
2019-04-19T13:21:08.160Z,101249.34
2019-04-19T13:23:38.062Z,101253.02
2019-04-19T13:26:07.264Z,101248.95
2019-04-19T13:28:36.036Z,101247.21
2019-04-19T13:31:05.988Z,101245.58
2019-04-19T13:33:36.612Z,101254.66
2019-04-19T13:36:07.431Z,101243.94
2019-04-19T13:38:43.431Z,101242.12
2019-04-19T13:41:30.106Z,101250.52
2019-04-19T13:43:58.733Z,101245.32
2019-04-19T13:46:28.508Z,101245.86
2019-04-19T13:48:57.243Z,101251.63
2019-04-19T13:53:54.513Z,101237.42
2019-04-19T13:56:24.592Z,101239.52
2019-04-19T13:58:53.781Z,101233.73
2019-04-19T14:01:22.695Z,101233.27
2019-04-19T14:03:51.431Z,101234.52
2019-04-19T14:06:20.149Z,101233.41
2019-04-19T14:08:49.043Z,101234.14
2019-04-19T14:11:19.297Z,101233.87
2019-04-19T14:13:53.403Z,101237.53
2019-04-19T14:16:18.768Z,101235.17
2019-04-19T14:18:47.365Z,101227.24
2019-04-19T14:21:17.075Z,101225.84
2019-04-19T14:23:45.826Z,101226.19
2019-04-19T14:26:18.884Z,101232.73
2019-04-19T14:28:45.500Z,101219.17
2019-04-19T14:31:14.451Z,101225.56
2019-04-19T14:33:43.326Z,101223.09
2019-04-19T14:36:11.842Z,101214.98
2019-04-19T14:38:41.394Z,101220.86
2019-04-19T14:41:11.511Z,101220.41
2019-04-19T14:43:40.614Z,101216.46
2019-04-19T14:46:11.095Z,101218.12
2019-04-19T14:48:41.793Z,101213.50
2019-04-19T14:51:18.409Z,101209.63
2019-04-19T14:53:40.793Z,101216.35
2019-04-19T14:56:09.663Z,101209.55
2019-04-19T14:58:38.357Z,101208.18
2019-04-19T15:01:24.847Z,101206.13
2019-04-19T15:03:55.058Z,101206.20
2019-04-19T15:06:23.905Z,101210.41
2019-04-19T15:08:53.760Z,101210.92
2019-04-19T15:11:23.417Z,101206.83
2019-04-19T15:13:54.068Z,101199.52
2019-04-19T15:16:23.197Z,101203.81
2019-04-19T15:18:52.119Z,101197.39
2019-04-19T15:21:22.035Z,101209.07
2019-04-19T15:23:52.447Z,101203.10
2019-04-19T15:26:22.592Z,101201.88
2019-04-19T15:28:51.207Z,101199.52
2019-04-19T15:31:20.651Z,101201.74
2019-04-19T15:33:50.235Z,101195.28
2019-04-19T15:36:19.728Z,101199.14
2019-04-19T15:38:50.088Z,101200.06
2019-04-19T15:41:19.887Z,101195.38
2019-04-19T15:43:48.571Z,101194.75
2019-04-19T15:46:17.691Z,101201.24
2019-04-19T15:48:50.218Z,101196.53
2019-04-19T15:51:24.703Z,101206.61
2019-04-19T15:53:48.802Z,101202.13
2019-04-19T15:56:18.187Z,101207.13
2019-04-19T15:58:47.347Z,101200.45
2019-04-19T16:01:17.634Z,101198.05
2019-04-19T16:03:59.484Z,101202.49
2019-04-19T16:06:30.135Z,101199.47
2019-04-19T16:09:01.233Z,101203.16
2019-04-19T16:11:49.052Z,101205.59
2019-04-19T16:14:18.012Z,101195.55
2019-04-19T16:16:47.429Z,101202.55
2019-04-19T16:19:16.457Z,101200.16
2019-04-19T16:21:50.155Z,101200.97
2019-04-19T16:24:15.450Z,101199.61
2019-04-19T16:26:44.812Z,101192.73
2019-04-19T16:29:24.393Z,101196.25
2019-04-19T16:31:44.684Z,101201.13
2019-04-19T16:34:16.296Z,101195.61
2019-04-19T16:36:43.958Z,101203.26
2019-04-19T16:39:12.731Z,101196.97
2019-04-19T16:41:42.503Z,101198.44
2019-04-19T16:44:11.599Z,101193.81
2019-04-19T16:46:41.108Z,101190.73
2019-04-19T16:49:10.673Z,101198.72
2019-04-19T16:51:45.862Z,101196.64
2019-04-19T16:54:10.189Z,101191.88
2019-04-19T16:56:39.679Z,101187.70
2019-04-19T16:59:08.369Z,101194.10
2019-04-19T17:01:36.903Z,101190.67
2019-04-19T17:04:05.818Z,101191.53
2019-04-19T17:06:34.529Z,101190.02
2019-04-19T17:09:04.721Z,101192.34
2019-04-19T17:11:34.235Z,101187.30
2019-04-19T17:14:04.856Z,101186.75
2019-04-19T17:16:50.826Z,101186.16
2019-04-19T17:19:28.746Z,101183.72
2019-04-19T17:22:06.176Z,101187.41
2019-04-19T17:24:29.190Z,101187.32
2019-04-19T17:26:58.734Z,101193.45
2019-04-19T17:29:28.823Z,101192.07
2019-04-19T17:31:58.340Z,101191.20
2019-04-19T17:34:26.844Z,101190.77
2019-04-19T17:36:55.977Z,101195.64
2019-04-19T17:39:24.711Z,101193.84
2019-04-19T17:41:54.553Z,101196.44
2019-04-19T17:44:23.834Z,101191.20
2019-04-19T17:46:52.457Z,101200.35
2019-04-19T17:49:20.915Z,101200.83
2019-04-19T17:51:58.804Z,101199.97
2019-04-19T17:54:39.115Z,101202.67
2019-04-19T17:56:51.158Z,101203.03
2019-04-19T17:59:22.988Z,101204.13
2019-04-19T18:01:52.989Z,101201.19
2019-04-19T18:04:21.996Z,101207.25
2019-04-19T18:06:56.434Z,101210.63
2019-04-19T18:09:22.861Z,101211.09
2019-04-19T18:11:51.493Z,101210.94
2019-04-19T18:14:20.274Z,101212.57
2019-04-19T18:16:48.811Z,101211.33
2019-04-19T18:19:26.359Z,101213.17
2019-04-19T18:21:48.183Z,101218.70
2019-04-19T18:24:21.296Z,101218.78
2019-04-19T18:26:47.048Z,101220.66
2019-04-19T18:29:21.280Z,101218.77
2019-04-19T18:31:50.976Z,101222.22
2019-04-19T18:34:19.469Z,101217.30
2019-04-19T18:36:51.718Z,101223.43
2019-04-19T18:39:18.295Z,101228.42
2019-04-19T18:41:47.622Z,101224.72
2019-04-19T18:44:23.742Z,101225.44
2019-04-19T18:46:46.820Z,101231.52
2019-04-19T18:49:15.876Z,101226.08
2019-04-19T18:51:47.090Z,101230.81
2019-04-19T18:54:22.913Z,101223.45
2019-04-19T18:56:48.822Z,101229.87
2019-04-19T18:59:21.885Z,101230.58
2019-04-19T19:01:46.366Z,101230.98
2019-04-19T19:04:19.698Z,101232.80
2019-04-19T19:06:48.080Z,101237.96
2019-04-19T19:09:18.294Z,101243.73
2019-04-19T19:11:58.567Z,101248.65
2019-04-19T19:14:21.018Z,101252.02
2019-04-19T19:16:51.327Z,101248.66
2019-04-19T19:19:25.182Z,101249.64
2019-04-19T19:21:50.385Z,101258.56
2019-04-19T19:24:40.474Z,101260.27
2019-04-19T19:27:00.970Z,101260.73
2019-04-19T19:29:20.326Z,101260.91
2019-04-19T19:31:50.425Z,101262.70
2019-04-19T19:36:52.755Z,101263.95
2019-04-19T19:39:30.386Z,101266.34
2019-04-19T19:41:56.629Z,101261.57
2019-04-19T19:44:37.365Z,101266.18
2019-04-19T19:47:41.019Z,101273.86
2019-04-19T19:50:13.751Z,101269.31
2019-04-19T19:52:29.078Z,101273.21
2019-04-19T19:55:02.657Z,101272.91
2019-04-19T19:57:30.088Z,101269.55
2019-04-19T20:00:01.854Z,101274.59
2019-04-19T20:02:25.774Z,101275.74
2019-04-19T20:04:47.681Z,101273.63
2019-04-19T20:07:20.672Z,101285.38
2019-04-19T20:09:50.087Z,101281.54
2019-04-19T20:12:21.438Z,101285.66
2019-04-19T20:14:50.966Z,101284.27
2019-04-19T20:17:18.188Z,101280.21
2019-04-19T20:19:49.559Z,101285.83
2019-04-19T20:22:17.271Z,101295.69
2019-04-19T20:24:55.239Z,101290.66
2019-04-19T20:27:21.897Z,101290.28
2019-04-19T20:29:55.190Z,101287.36
2019-04-19T20:32:20.600Z,101293.73
2019-04-19T20:34:47.728Z,101293.79
2019-04-19T20:37:19.418Z,101297.58
2019-04-19T20:39:48.442Z,101297.09
2019-04-19T20:42:25.188Z,101297.86
2019-04-19T20:45:00.360Z,101298.74
2019-04-19T20:47:23.165Z,101297.78
2019-04-19T20:49:49.988Z,101299.73
2019-04-19T20:52:45.475Z,101306.45
2019-04-19T20:55:25.082Z,101302.02
2019-04-19T20:57:58.880Z,101295.64
2019-04-19T21:00:40.655Z,101308.53
2019-04-19T21:03:10.971Z,101316.77
2019-04-19T21:05:44.540Z,101315.86
2019-04-19T21:08:12.683Z,101314.00
2019-04-19T21:10:49.994Z,101316.47
2019-04-19T21:13:12.796Z,101315.82
2019-04-19T21:15:41.783Z,101315.47
2019-04-19T21:18:16.881Z,101314.06
2019-04-19T21:20:41.047Z,101319.20
2019-04-19T21:23:16.133Z,101322.55
2019-04-19T21:25:47.963Z,101318.19
2019-04-19T21:28:10.511Z,101312.86
2019-04-19T21:30:45.052Z,101324.91
2019-04-19T21:33:13.690Z,101320.34
2019-04-19T21:35:48.492Z,101323.03
2019-04-19T21:38:16.980Z,101321.53
2019-04-19T21:40:43.484Z,101325.10
2019-04-19T21:43:11.231Z,101321.19
2019-04-19T21:45:43.214Z,101330.33
2019-04-19T21:48:10.999Z,101329.81
2019-04-19T21:50:43.798Z,101326.20
2019-04-19T21:53:11.147Z,101336.34
2019-04-19T21:55:42.700Z,101334.05
2019-04-19T21:58:13.395Z,101330.00
2019-04-19T22:00:56.285Z,101332.73
2019-04-19T22:03:21.481Z,101334.38
2019-04-19T22:05:47.412Z,101331.16
2019-04-19T22:08:24.764Z,101330.23
2019-04-19T22:10:48.307Z,101331.61
2019-04-19T22:13:16.748Z,101324.44
2019-04-19T22:15:52.124Z,101332.83
2019-04-19T22:18:15.646Z,101325.71
2019-04-19T22:20:51.335Z,101328.82
2019-04-19T22:23:16.100Z,101332.83
2019-04-19T22:25:52.590Z,101329.82
2019-04-19T22:28:15.380Z,101338.44
2019-04-19T22:30:48.733Z,101342.83
2019-04-19T22:33:14.435Z,101337.97
2019-04-19T22:35:46.944Z,101340.75
2019-04-19T22:38:17.895Z,101343.39
2019-04-19T22:40:45.030Z,101336.80
2019-04-19T22:43:15.071Z,101340.75
2019-04-19T22:45:44.560Z,101339.34
2019-04-19T22:48:16.779Z,101335.50
2019-04-19T22:50:44.492Z,101343.45
2019-04-19T22:53:17.269Z,101345.20
2019-04-19T22:55:52.206Z,101347.67
2019-04-19T22:58:17.715Z,101339.72
2019-04-19T23:00:47.134Z,101341.34
2019-04-19T23:03:27.285Z,101339.48
2019-04-19T23:05:50.369Z,101341.28
2019-04-19T23:08:29.838Z,101340.91
2019-04-19T23:10:57.046Z,101346.76
2019-04-19T23:13:25.187Z,101342.69
2019-04-19T23:15:58.897Z,101342.02
2019-04-19T23:18:25.826Z,101343.52
2019-04-19T23:20:55.735Z,101345.66
2019-04-19T23:23:29.405Z,101343.82
2019-04-19T23:26:06.195Z,101342.66
2019-04-19T23:28:31.627Z,101340.27
2019-04-19T23:31:01.981Z,101341.18
2019-04-19T23:33:26.263Z,101336.83
2019-04-19T23:35:55.529Z,101338.97
2019-04-19T23:38:27.704Z,101341.58
2019-04-19T23:40:55.223Z,101346.47
2019-04-19T23:43:29.503Z,101349.73
2019-04-19T23:45:54.216Z,101351.55
2019-04-19T23:48:26.437Z,101351.23
2019-04-19T23:50:54.559Z,101356.98
2019-04-19T23:53:29.952Z,101348.03
2019-04-19T23:55:54.191Z,101344.04
2019-04-19T23:58:28.609Z,101347.56
